sensor_id;sensor_type;location;lat;lon;timestamp;pressure;altitude;pressure_sealevel;temperature;humidity
59787;BME280;45672;51.612;5.536;2023-02-21T00:00:06;101903.59;;;8.17;100.00
59787;BME280;45672;51.612;5.536;2023-02-21T00:02:50;101904.66;;;8.14;100.00
59787;BME280;45672;51.612;5.536;2023-02-21T00:05:34;101904.88;;;8.11;100.00
59787;BME280;45672;51.612;5.536;2023-02-21T00:08:17;101900.53;;;8.10;100.00
59787;BME280;45672;51.612;5.536;2023-02-21T00:11:01;101904.88;;;8.11;100.00
59787;BME280;45672;51.612;5.536;2023-02-21T00:13:45;101904.03;;;8.10;100.00
59787;BME280;45672;51.612;5.536;2023-02-21T00:16:29;101898.75;;;8.10;100.00
59787;BME280;45672;51.612;5.536;2023-02-21T00:19:13;101901.41;;;8.10;100.00
59787;BME280;45672;51.612;5.536;2023-02-21T00:21:57;101895.22;;;8.10;100.00
59787;BME280;45672;51.612;5.536;2023-02-21T00:24:41;101905.00;;;8.09;100.00
59787;BME280;45672;51.612;5.536;2023-02-21T00:27:25;101899.69;;;8.09;100.00
59787;BME280;45672;51.612;5.536;2023-02-21T00:30:10;101897.03;;;8.09;100.00
59787;BME280;45672;51.612;5.536;2023-02-21T00:32:54;101902.47;;;8.08;100.00
59787;BME280;45672;51.612;5.536;2023-02-21T00:35:38;101908.59;;;8.08;100.00
59787;BME280;45672;51.612;5.536;2023-02-21T00:38:22;101904.16;;;8.09;100.00
59787;BME280;45672;51.612;5.536;2023-02-21T00:41:06;101899.94;;;8.06;100.00
59787;BME280;45672;51.612;5.536;2023-02-21T00:43:50;101906.94;;;8.07;100.00
59787;BME280;45672;51.612;5.536;2023-02-21T00:46:35;101898.47;;;8.02;100.00
59787;BME280;45672;51.612;5.536;2023-02-21T00:49:19;101901.00;;;8.04;100.00
59787;BME280;45672;51.612;5.536;2023-02-21T00:52:03;101908.00;;;8.05;100.00
59787;BME280;45672;51.612;5.536;2023-02-21T00:54:47;101896.44;;;8.06;100.00
59787;BME280;45672;51.612;5.536;2023-02-21T00:57:31;101900.16;;;8.03;100.00
59787;BME280;45672;51.612;5.536;2023-02-21T01:00:19;101893.16;;;8.02;100.00
59787;BME280;45672;51.612;5.536;2023-02-21T01:03:04;101892.31;;;8.02;100.00
59787;BME280;45672;51.612;5.536;2023-02-21T01:05:47;101881.91;;;7.99;100.00
59787;BME280;45672;51.612;5.536;2023-02-21T01:08:31;101885.44;;;7.99;100.00
59787;BME280;45672;51.612;5.536;2023-02-21T01:11:20;101888.91;;;8.00;100.00
59787;BME280;45672;51.612;5.536;2023-02-21T01:14:06;101877.72;;;7.96;100.00
59787;BME280;45672;51.612;5.536;2023-02-21T01:16:50;101882.16;;;7.96;100.00
59787;BME280;45672;51.612;5.536;2023-02-21T01:19:34;101879.84;;;7.91;100.00
59787;BME280;45672;51.612;5.536;2023-02-21T01:22:18;101876.25;;;7.92;100.00
59787;BME280;45672;51.612;5.536;2023-02-21T01:25:02;101869.97;;;7.93;100.00
59787;BME280;45672;51.612;5.536;2023-02-21T01:27:46;101858.63;;;7.91;100.00
59787;BME280;45672;51.612;5.536;2023-02-21T01:30:30;101861.06;;;7.94;100.00
59787;BME280;45672;51.612;5.536;2023-02-21T01:33:14;101859.38;;;7.93;100.00
59787;BME280;45672;51.612;5.536;2023-02-21T01:35:58;101865.53;;;7.93;100.00
59787;BME280;45672;51.612;5.536;2023-02-21T01:38:42;101860.34;;;7.92;100.00
59787;BME280;45672;51.612;5.536;2023-02-21T01:41:26;101863.94;;;7.91;100.00
59787;BME280;45672;51.612;5.536;2023-02-21T01:44:31;101870.06;;;7.91;100.00
59787;BME280;45672;51.612;5.536;2023-02-21T01:47:15;101875.38;;;7.91;100.00
59787;BME280;45672;51.612;5.536;2023-02-21T01:50:00;101879.84;;;7.91;100.00
59787;BME280;45672;51.612;5.536;2023-02-21T01:52:46;101877.06;;;7.92;100.00
59787;BME280;45672;51.612;5.536;2023-02-21T01:55:31;101876.25;;;7.92;100.00
59787;BME280;45672;51.612;5.536;2023-02-21T01:58:17;101872.84;;;7.90;100.00
59787;BME280;45672;51.612;5.536;2023-02-21T02:01:03;101860.78;;;7.86;100.00
59787;BME280;45672;51.612;5.536;2023-02-21T02:03:47;101861.63;;;7.86;100.00
59787;BME280;45672;51.612;5.536;2023-02-21T02:06:31;101859.09;;;7.85;100.00
59787;BME280;45672;51.612;5.536;2023-02-21T02:09:20;101857.16;;;7.87;100.00
59787;BME280;45672;51.612;5.536;2023-02-21T02:17:55;101847.41;;;7.87;100.00
59787;BME280;45672;51.612;5.536;2023-02-21T02:20:42;101845.75;;;7.86;100.00
59787;BME280;45672;51.612;5.536;2023-02-21T02:23:35;101847.53;;;7.86;100.00
59787;BME280;45672;51.612;5.536;2023-02-21T02:34:28;101842.69;;;7.80;100.00
59787;BME280;45672;51.612;5.536;2023-02-21T02:42:15;101834.84;;;7.78;100.00
59787;BME280;45672;51.612;5.536;2023-02-21T02:44:52;101836.66;;;7.78;100.00
59787;BME280;45672;51.612;5.536;2023-02-21T02:47:28;101828.72;;;7.78;100.00
59787;BME280;45672;51.612;5.536;2023-02-21T02:49:57;101824.38;;;7.76;100.00
59787;BME280;45672;51.612;5.536;2023-02-21T02:52:23;101827.63;;;7.80;100.00
59787;BME280;45672;51.612;5.536;2023-02-21T02:55:24;101814.25;;;7.82;100.00
59787;BME280;45672;51.612;5.536;2023-02-21T02:57:54;101809.94;;;7.81;100.00
59787;BME280;45672;51.612;5.536;2023-02-21T03:00:20;101820.53;;;7.81;100.00
59787;BME280;45672;51.612;5.536;2023-02-21T03:03:06;101826.66;;;7.81;100.00
59787;BME280;45672;51.612;5.536;2023-02-21T03:08:24;101827.50;;;7.82;100.00
59787;BME280;45672;51.612;5.536;2023-02-21T03:11:14;101823.06;;;7.82;100.00
59787;BME280;45672;51.612;5.536;2023-02-21T03:13:52;101830.16;;;7.82;100.00
59787;BME280;45672;51.612;5.536;2023-02-21T03:16:39;101832.81;;;7.82;100.00
59787;BME280;45672;51.612;5.536;2023-02-21T03:19:12;101824.13;;;7.80;100.00
59787;BME280;45672;51.612;5.536;2023-02-21T03:21:40;101819.47;;;7.83;100.00
59787;BME280;45672;51.612;5.536;2023-02-21T03:24:09;101830.28;;;7.80;100.00
59787;BME280;45672;51.612;5.536;2023-02-21T03:26:36;101827.72;;;7.79;100.00
59787;BME280;45672;51.612;5.536;2023-02-21T03:29:04;101826.06;;;7.78;100.00
59787;BME280;45672;51.612;5.536;2023-02-21T03:31:35;101819.06;;;7.76;100.00
59787;BME280;45672;51.612;5.536;2023-02-21T03:34:03;101824.38;;;7.76;100.00
59787;BME280;45672;51.612;5.536;2023-02-21T03:36:29;101826.28;;;7.74;100.00
59787;BME280;45672;51.612;5.536;2023-02-21T03:38:55;101825.31;;;7.75;100.00
59787;BME280;45672;51.612;5.536;2023-02-21T03:41:20;101834.97;;;7.76;100.00
59787;BME280;45672;51.612;5.536;2023-02-21T03:43:45;101831.38;;;7.78;100.00
59787;BME280;45672;51.612;5.536;2023-02-21T03:46:11;101824.38;;;7.76;100.00
59787;BME280;45672;51.612;5.536;2023-02-21T03:48:36;101823.50;;;7.76;100.00
59787;BME280;45672;51.612;5.536;2023-02-21T03:51:01;101820.03;;;7.75;100.00
59787;BME280;45672;51.612;5.536;2023-02-21T03:53:27;101815.66;;;7.74;100.00
59787;BME280;45672;51.612;5.536;2023-02-21T03:55:52;101819.31;;;7.73;100.00
59787;BME280;45672;51.612;5.536;2023-02-21T03:58:17;101824.59;;;7.73;100.00
59787;BME280;45672;51.612;5.536;2023-02-21T04:00:43;101817.59;;;7.72;100.00
59787;BME280;45672;51.612;5.536;2023-02-21T04:03:08;101820.97;;;7.74;100.00
59787;BME280;45672;51.612;5.536;2023-02-21T04:05:34;101820.03;;;7.75;100.00
59787;BME280;45672;51.612;5.536;2023-02-21T04:08:00;101828.72;;;7.78;100.00
59787;BME280;45672;51.612;5.536;2023-02-21T04:10:25;101827.63;;;7.80;100.00
59787;BME280;45672;51.612;5.536;2023-02-21T04:12:50;101827.72;;;7.79;100.00
59787;BME280;45672;51.612;5.536;2023-02-21T04:15:16;101829.31;;;7.81;100.00
59787;BME280;45672;51.612;5.536;2023-02-21T04:17:41;101831.97;;;7.81;100.00
59787;BME280;45672;51.612;5.536;2023-02-21T04:20:07;101832.81;;;7.82;100.00
59787;BME280;45672;51.612;5.536;2023-02-21T04:22:32;101828.50;;;7.81;100.00
59787;BME280;45672;51.612;5.536;2023-02-21T04:24:57;101817.88;;;7.81;100.00
59787;BME280;45672;51.612;5.536;2023-02-21T04:27:23;101817.25;;;7.77;100.00
59787;BME280;45672;51.612;5.536;2023-02-21T04:29:48;101816.66;;;7.73;100.00
59787;BME280;45672;51.612;5.536;2023-02-21T04:32:13;101816.66;;;7.73;100.00
59787;BME280;45672;51.612;5.536;2023-02-21T04:34:39;101808.06;;;7.70;100.00
59787;BME280;45672;51.612;5.536;2023-02-21T04:37:04;101804.69;;;7.68;100.00
59787;BME280;45672;51.612;5.536;2023-02-21T04:39:29;101795.06;;;7.67;100.00
59787;BME280;45672;51.612;5.536;2023-02-21T04:41:55;101795.16;;;7.65;100.00
59787;BME280;45672;51.612;5.536;2023-02-21T04:44:20;101797.81;;;7.65;100.00
59787;BME280;45672;51.612;5.536;2023-02-21T04:46:45;101793.47;;;7.64;100.00
59787;BME280;45672;51.612;5.536;2023-02-21T04:49:11;101799.41;;;7.68;100.00
59787;BME280;45672;51.612;5.536;2023-02-21T04:51:37;101792.41;;;7.67;100.00
59787;BME280;45672;51.612;5.536;2023-02-21T04:54:03;101810.84;;;7.68;100.00
59787;BME280;45672;51.612;5.536;2023-02-21T04:56:28;101794.09;;;7.68;100.00
59787;BME280;45672;51.612;5.536;2023-02-21T04:58:54;101800.00;;;7.71;100.00
59787;BME280;45672;51.612;5.536;2023-02-21T05:01:20;101800.25;;;7.68;100.00
59787;BME280;45672;51.612;5.536;2023-02-21T05:03:46;101794.09;;;7.68;100.00
59787;BME280;45672;51.612;5.536;2023-02-21T05:06:20;101792.16;;;7.70;100.00
59787;BME280;45672;51.612;5.536;2023-02-21T05:08:46;101793.75;;;7.72;100.00
59787;BME280;45672;51.612;5.536;2023-02-21T05:11:12;101793.66;;;7.74;100.00
59787;BME280;45672;51.612;5.536;2023-02-21T05:13:37;101806.06;;;7.73;100.00
59787;BME280;45672;51.612;5.536;2023-02-21T05:16:03;101800.88;;;7.72;100.00
59787;BME280;45672;51.612;5.536;2023-02-21T05:18:28;101809.66;;;7.72;100.00
59787;BME280;45672;51.612;5.536;2023-02-21T05:20:54;101806.16;;;7.72;100.00
59787;BME280;45672;51.612;5.536;2023-02-21T05:23:19;101805.81;;;7.76;100.00
59787;BME280;45672;51.612;5.536;2023-02-21T05:26:08;101805.94;;;7.75;100.00
59787;BME280;45672;51.612;5.536;2023-02-21T05:28:34;101797.47;;;7.70;100.00
59787;BME280;45672;51.612;5.536;2023-02-21T05:31:00;101800.47;;;7.65;100.00
59787;BME280;45672;51.612;5.536;2023-02-21T05:33:25;101808.41;;;7.65;100.00
59787;BME280;45672;51.612;5.536;2023-02-21T05:35:51;101806.00;;;7.62;100.00
59787;BME280;45672;51.612;5.536;2023-02-21T05:38:18;101800.94;;;7.59;100.00
59787;BME280;45672;51.612;5.536;2023-02-21T05:40:44;101794.88;;;7.57;100.00
59787;BME280;45672;51.612;5.536;2023-02-21T05:43:09;101795.00;;;7.55;100.00
59787;BME280;45672;51.612;5.536;2023-02-21T05:45:35;101797.13;;;7.50;100.00
59787;BME280;45672;51.612;5.536;2023-02-21T05:48:00;101789.19;;;7.50;100.00
59787;BME280;45672;51.612;5.536;2023-02-21T05:50:27;101797.13;;;7.50;100.00
59787;BME280;45672;51.612;5.536;2023-02-21T05:52:54;101804.34;;;7.48;100.00
59787;BME280;45672;51.612;5.536;2023-02-21T05:55:20;101805.41;;;7.46;100.00
59787;BME280;45672;51.612;5.536;2023-02-21T05:57:45;101798.63;;;7.41;100.00
59787;BME280;45672;51.612;5.536;2023-02-21T06:00:20;101807.34;;;7.44;100.00
59787;BME280;45672;51.612;5.536;2023-02-21T06:02:45;101817.06;;;7.43;100.00
59787;BME280;45672;51.612;5.536;2023-02-21T06:05:11;101811.75;;;7.43;100.00
59787;BME280;45672;51.612;5.536;2023-02-21T06:07:37;101809.22;;;7.41;100.00
59787;BME280;45672;51.612;5.536;2023-02-21T06:10:03;101797.03;;;7.39;100.00
59787;BME280;45672;51.612;5.536;2023-02-21T06:12:30;101809.44;;;7.38;100.00
59787;BME280;45672;51.612;5.536;2023-02-21T06:14:55;101795.38;;;7.38;100.00
59787;BME280;45672;51.612;5.536;2023-02-21T06:17:20;101801.63;;;7.37;100.00
59787;BME280;45672;51.612;5.536;2023-02-21T06:19:46;101804.16;;;7.38;100.00
59787;BME280;45672;51.612;5.536;2023-02-21T06:22:11;101807.75;;;7.37;100.00
59787;BME280;45672;51.612;5.536;2023-02-21T06:24:36;101803.56;;;7.35;100.00
59787;BME280;45672;51.612;5.536;2023-02-21T06:27:02;101805.34;;;7.34;100.00
59787;BME280;45672;51.612;5.536;2023-02-21T06:29:27;101797.63;;;7.31;100.00
59787;BME280;45672;51.612;5.536;2023-02-21T06:31:59;101796.03;;;7.29;100.00
59787;BME280;45672;51.612;5.536;2023-02-21T06:34:25;101806.63;;;7.29;100.00
59787;BME280;45672;51.612;5.536;2023-02-21T06:36:52;101808.44;;;7.28;100.00
59787;BME280;45672;51.612;5.536;2023-02-21T06:39:18;101798.69;;;7.29;100.00
59787;BME280;45672;51.612;5.536;2023-02-21T06:41:43;101812.78;;;7.29;100.00
59787;BME280;45672;51.612;5.536;2023-02-21T06:44:08;101818.06;;;7.29;100.00
59787;BME280;45672;51.612;5.536;2023-02-21T06:46:34;101811.91;;;7.29;100.00
59787;BME280;45672;51.612;5.536;2023-02-21T06:49:02;101814.34;;;7.32;100.00
59787;BME280;45672;51.612;5.536;2023-02-21T06:51:27;101816.97;;;7.32;100.00
59787;BME280;45672;51.612;5.536;2023-02-21T06:53:57;101814.66;;;7.27;100.00
59787;BME280;45672;51.612;5.536;2023-02-21T06:56:22;101806.94;;;7.24;100.00
59787;BME280;45672;51.612;5.536;2023-02-21T06:58:48;101820.06;;;7.25;100.00
59787;BME280;45672;51.612;5.536;2023-02-21T07:01:13;101825.38;;;7.25;100.00
59787;BME280;45672;51.612;5.536;2023-02-21T07:03:39;101816.72;;;7.23;100.00
59787;BME280;45672;51.612;5.536;2023-02-21T07:06:07;101826.31;;;7.24;100.00
59787;BME280;45672;51.612;5.536;2023-02-21T07:08:32;101818.38;;;7.24;100.00
59787;BME280;45672;51.612;5.536;2023-02-21T07:10:57;101825.38;;;7.25;100.00
59787;BME280;45672;51.612;5.536;2023-02-21T07:13:23;101823.56;;;7.26;100.00
59787;BME280;45672;51.612;5.536;2023-02-21T07:15:48;101821.88;;;7.25;100.00
59787;BME280;45672;51.612;5.536;2023-02-21T07:18:13;101820.19;;;7.24;100.00
59787;BME280;45672;51.612;5.536;2023-02-21T07:20:39;101826.09;;;7.28;100.00
59787;BME280;45672;51.612;5.536;2023-02-21T07:23:04;101822.72;;;7.25;100.00
59787;BME280;45672;51.612;5.536;2023-02-21T07:25:29;101823.56;;;7.26;100.00
59787;BME280;45672;51.612;5.536;2023-02-21T07:27:54;101825.25;;;7.27;100.00
59787;BME280;45672;51.612;5.536;2023-02-21T07:30:20;101822.72;;;7.25;100.00
59787;BME280;45672;51.612;5.536;2023-02-21T07:32:45;101821.78;;;7.27;100.00
59787;BME280;45672;51.612;5.536;2023-02-21T07:35:11;101820.72;;;7.29;100.00
59787;BME280;45672;51.612;5.536;2023-02-21T07:37:36;101826.00;;;7.29;100.00
59787;BME280;45672;51.612;5.536;2023-02-21T07:40:03;101818.06;;;7.29;100.00
59787;BME280;45672;51.612;5.536;2023-02-21T07:42:31;101812.78;;;7.29;100.00
59787;BME280;45672;51.612;5.536;2023-02-21T07:44:56;101825.47;;;7.24;100.00
59787;BME280;45672;51.612;5.536;2023-02-21T07:47:23;101835.53;;;7.19;100.00
59787;BME280;45672;51.612;5.536;2023-02-21T07:49:48;101831.41;;;7.15;100.00
59787;BME280;45672;51.612;5.536;2023-02-21T07:52:14;101821.81;;;7.14;100.00
59787;BME280;45672;51.612;5.536;2023-02-21T07:54:39;101813.34;;;7.08;100.00
59787;BME280;45672;51.612;5.536;2023-02-21T07:57:04;101814.28;;;7.07;100.00
59787;BME280;45672;51.612;5.536;2023-02-21T07:59:31;101823.38;;;7.03;100.00
59787;BME280;45672;51.612;5.536;2023-02-21T08:01:56;101827.94;;;7.01;100.00
59787;BME280;45672;51.612;5.536;2023-02-21T08:04:22;101830.38;;;7.04;100.00
59787;BME280;45672;51.612;5.536;2023-02-21T08:06:48;101822.78;;;7.00;100.00
59787;BME280;45672;51.612;5.536;2023-02-21T08:09:13;101832.59;;;6.98;100.00
59787;BME280;45672;51.612;5.536;2023-02-21T08:11:38;101823.94;;;6.96;100.00
59787;BME280;45672;51.612;5.536;2023-02-21T08:14:04;101825.63;;;6.97;100.00
59787;BME280;45672;51.612;5.536;2023-02-21T08:16:30;101825.63;;;6.97;100.00
59787;BME280;45672;51.612;5.536;2023-02-21T08:18:55;101823.09;;;6.95;100.00
59787;BME280;45672;51.612;5.536;2023-02-21T08:21:20;101830.72;;;6.87;100.00
59787;BME280;45672;51.612;5.536;2023-02-21T08:23:46;101828.91;;;6.87;100.00
59787;BME280;45672;51.612;5.536;2023-02-21T08:26:11;101831.78;;;6.84;100.00
59787;BME280;45672;51.612;5.536;2023-02-21T08:28:36;101819.81;;;6.79;100.00
59787;BME280;45672;51.612;5.536;2023-02-21T08:31:02;101817.72;;;6.84;100.00
59787;BME280;45672;51.612;5.536;2023-02-21T08:33:28;101818.66;;;6.83;100.00
59787;BME280;45672;51.612;5.536;2023-02-21T08:35:53;101825.31;;;6.88;100.00
59787;BME280;45672;51.612;5.536;2023-02-21T08:38:18;101824.97;;;6.93;100.00
59787;BME280;45672;51.612;5.536;2023-02-21T08:40:44;101831.22;;;6.92;100.00
59787;BME280;45672;51.612;5.536;2023-02-21T08:43:10;101832.72;;;6.96;100.00
59787;BME280;45672;51.612;5.536;2023-02-21T08:45:35;101826.47;;;6.97;100.00
59787;BME280;45672;51.612;5.536;2023-02-21T08:48:00;101828.28;;;6.97;100.00
59787;BME280;45672;51.612;5.536;2023-02-21T08:50:27;101822.97;;;6.97;100.00
59787;BME280;45672;51.612;5.536;2023-02-21T08:52:53;101820.22;;;6.98;100.00
59787;BME280;45672;51.612;5.536;2023-02-21T08:55:19;101816.53;;;7.01;100.00
59787;BME280;45672;51.612;5.536;2023-02-21T08:57:49;101819.78;;;7.04;100.00
59787;BME280;45672;51.612;5.536;2023-02-21T09:00:16;101829.22;;;7.08;100.00
59787;BME280;45672;51.612;5.536;2023-02-21T09:02:41;101828.88;;;7.13;100.00
59787;BME280;45672;51.612;5.536;2023-02-21T09:05:14;101828.47;;;7.06;100.00
59787;BME280;45672;51.612;5.536;2023-02-21T09:07:40;101821.94;;;6.99;100.00
59787;BME280;45672;51.612;5.536;2023-02-21T09:10:06;101809.13;;;6.93;100.00
59787;BME280;45672;51.612;5.536;2023-02-21T09:12:34;101820.94;;;7.00;100.00
59787;BME280;45672;51.612;5.536;2023-02-21T09:14:59;101812.91;;;7.02;100.00
59787;BME280;45672;51.612;5.536;2023-02-21T09:17:24;101813.78;;;7.02;100.00
59787;BME280;45672;51.612;5.536;2023-02-21T09:19:50;101813.66;;;7.04;100.00
59787;BME280;45672;51.612;5.536;2023-02-21T09:22:15;101806.13;;;6.98;100.00
59787;BME280;45672;51.612;5.536;2023-02-21T09:24:43;101802.31;;;7.02;100.00
59787;BME280;45672;51.612;5.536;2023-02-21T09:27:08;101804.34;;;7.11;100.00
59787;BME280;45672;51.612;5.536;2023-02-21T09:29:35;101800.41;;;7.17;100.00
59787;BME280;45672;51.612;5.536;2023-02-21T09:32:02;101810.13;;;7.16;100.00
59787;BME280;45672;51.612;5.536;2023-02-21T09:34:28;101789.59;;;7.20;100.00
59787;BME280;45672;51.612;5.536;2023-02-21T09:36:54;101796.13;;;7.27;100.00
59787;BME280;45672;51.612;5.536;2023-02-21T09:39:21;101797.41;;;7.21;100.00
59787;BME280;45672;51.612;5.536;2023-02-21T09:41:47;101791.41;;;7.19;100.00
59787;BME280;45672;51.612;5.536;2023-02-21T09:44:18;101798.06;;;7.25;100.00
59787;BME280;45672;51.612;5.536;2023-02-21T09:46:47;101795.72;;;7.20;100.00
59787;BME280;45672;51.612;5.536;2023-02-21T09:49:22;101794.16;;;7.18;100.00
59787;BME280;45672;51.612;5.536;2023-02-21T09:51:50;101793.19;;;7.19;100.00
59787;BME280;45672;51.612;5.536;2023-02-21T09:54:23;101797.53;;;7.20;100.00
59787;BME280;45672;51.612;5.536;2023-02-21T09:56:49;101795.63;;;7.22;100.00
59787;BME280;45672;51.612;5.536;2023-02-21T09:59:15;101796.97;;;7.28;100.00
59787;BME280;45672;51.612;5.536;2023-02-21T10:04:56;101794.41;;;7.39;100.00
59787;BME280;45672;51.612;5.536;2023-02-21T10:12:46;101799.59;;;7.40;100.00
59787;BME280;45672;51.612;5.536;2023-02-21T10:20:52;101802.53;;;7.49;100.00
59787;BME280;45672;51.612;5.536;2023-02-21T10:23:40;101798.09;;;7.49;100.00
59787;BME280;45672;51.612;5.536;2023-02-21T10:26:13;101803.50;;;7.48;100.00
59787;BME280;45672;51.612;5.536;2023-02-21T10:28:40;101800.09;;;7.46;100.00
59787;BME280;45672;51.612;5.536;2023-02-21T10:31:14;101793.97;;;7.45;100.00
59787;BME280;45672;51.612;5.536;2023-02-21T10:33:42;101798.09;;;7.49;100.00
59787;BME280;45672;51.612;5.536;2023-02-21T10:36:10;101794.34;;;7.52;100.00
59787;BME280;45672;51.612;5.536;2023-02-21T10:38:37;101796.16;;;7.51;100.00
59787;BME280;45672;51.612;5.536;2023-02-21T10:41:05;101804.22;;;7.50;100.00
59787;BME280;45672;51.612;5.536;2023-02-21T10:43:43;101800.84;;;7.48;100.00
59787;BME280;45672;51.612;5.536;2023-02-21T10:46:30;101791.22;;;7.47;100.00
59787;BME280;45672;51.612;5.536;2023-02-21T10:51:42;101802.00;;;7.56;100.00
59787;BME280;45672;51.612;5.536;2023-02-21T10:54:23;101809.41;;;7.51;100.00
59787;BME280;45672;51.612;5.536;2023-02-21T10:56:50;101802.41;;;7.50;100.00
59787;BME280;45672;51.612;5.536;2023-02-21T10:59:40;101800.53;;;7.52;100.00
59787;BME280;45672;51.612;5.536;2023-02-21T11:02:31;101798.88;;;7.63;100.00
59787;BME280;45672;51.612;5.536;2023-02-21T11:05:16;101796.88;;;7.66;100.00
59787;BME280;45672;51.612;5.536;2023-02-21T11:08:09;101791.28;;;7.82;100.00
59787;BME280;45672;51.612;5.536;2023-02-21T11:10:38;101790.94;;;7.87;100.00
59787;BME280;45672;51.612;5.536;2023-02-21T11:16:16;101791.41;;;8.16;100.00
59787;BME280;45672;51.612;5.536;2023-02-21T11:18:41;101787.81;;;8.28;100.00
59787;BME280;45672;51.612;5.536;2023-02-21T11:21:15;101780.59;;;8.31;100.00
59787;BME280;45672;51.612;5.536;2023-02-21T11:23:47;101778.31;;;8.37;100.00
59787;BME280;45672;51.612;5.536;2023-02-21T11:26:16;101780.50;;;8.43;100.00
59787;BME280;45672;51.612;5.536;2023-02-21T11:28:42;101777.41;;;8.50;100.00
59787;BME280;45672;51.612;5.536;2023-02-21T11:31:48;101769.19;;;8.53;100.00
59787;BME280;45672;51.612;5.536;2023-02-21T11:34:09;101775.59;;;8.50;100.00
59787;BME280;45672;51.612;5.536;2023-02-21T11:36:38;101774.38;;;8.43;100.00
59787;BME280;45672;51.612;5.536;2023-02-21T11:41:57;101775.06;;;8.34;100.00
59787;BME280;45672;51.612;5.536;2023-02-21T11:44:26;101770.81;;;8.31;100.00
59787;BME280;45672;51.612;5.536;2023-02-21T11:47:03;101768.66;;;8.25;100.00
59787;BME280;45672;51.612;5.536;2023-02-21T11:52:04;101764.78;;;8.18;100.00
59787;BME280;45672;51.612;5.536;2023-02-21T11:54:30;101763.09;;;8.17;100.00
59787;BME280;45672;51.612;5.536;2023-02-21T11:57:21;101752.13;;;8.21;100.00
59787;BME280;45672;51.612;5.536;2023-02-21T12:00:00;101757.22;;;8.24;100.00
59787;BME280;45672;51.612;5.536;2023-02-21T12:07:47;101750.28;;;8.57;100.00
59787;BME280;45672;51.612;5.536;2023-02-21T12:13:22;101741.34;;;8.70;100.00
59787;BME280;45672;51.612;5.536;2023-02-21T12:16:00;101743.28;;;8.79;100.00
59787;BME280;45672;51.612;5.536;2023-02-21T12:19:01;101742.22;;;8.82;100.00
59787;BME280;45672;51.612;5.536;2023-02-21T12:27:30;101728.47;;;8.65;100.00
59787;BME280;45672;51.612;5.536;2023-02-21T12:33:22;101729.41;;;8.64;100.00
59787;BME280;45672;51.612;5.536;2023-02-21T12:38:39;101729.91;;;8.69;100.00
59787;BME280;45672;51.612;5.536;2023-02-21T12:44:00;101714.25;;;8.66;100.00
59787;BME280;45672;51.612;5.536;2023-02-21T12:46:48;101717.72;;;8.67;100.00
59787;BME280;45672;51.612;5.536;2023-02-21T12:49:33;101720.50;;;8.65;100.00
59787;BME280;45672;51.612;5.536;2023-02-21T12:52:15;101715.06;;;8.67;100.00
59787;BME280;45672;51.612;5.536;2023-02-21T12:54:48;101722.78;;;8.70;100.00
59787;BME280;45672;51.612;5.536;2023-02-21T12:57:21;101719.78;;;8.74;100.00
59787;BME280;45672;51.612;5.536;2023-02-21T13:00:16;101711.81;;;8.74;100.00
59787;BME280;45672;51.612;5.536;2023-02-21T13:03:22;101710.13;;;8.73;100.00
59787;BME280;45672;51.612;5.536;2023-02-21T13:05:53;101716.41;;;8.72;100.00
59787;BME280;45672;51.612;5.536;2023-02-21T13:08:26;101706.66;;;8.73;100.00
59787;BME280;45672;51.612;5.536;2023-02-21T13:11:11;101707.84;;;8.69;100.00
59787;BME280;45672;51.612;5.536;2023-02-21T13:13:38;101699.50;;;8.73;100.00
59787;BME280;45672;51.612;5.536;2023-02-21T13:16:09;101697.69;;;8.74;100.00
59787;BME280;45672;51.612;5.536;2023-02-21T13:18:44;101701.34;;;8.73;100.00
59787;BME280;45672;51.612;5.536;2023-02-21T13:27:09;101693.94;;;8.88;100.00
59787;BME280;45672;51.612;5.536;2023-02-21T13:29:40;101697.66;;;8.96;100.00
59787;BME280;45672;51.612;5.536;2023-02-21T13:32:14;101690.06;;;9.03;100.00
59787;BME280;45672;51.612;5.536;2023-02-21T13:34:44;101689.34;;;9.01;100.00
59787;BME280;45672;51.612;5.536;2023-02-21T13:37:18;101684.16;;;9.00;100.00
59787;BME280;45672;51.612;5.536;2023-02-21T13:39:50;101675.84;;;8.93;100.00
59787;BME280;45672;51.612;5.536;2023-02-21T13:42:19;101675.97;;;8.91;100.00
59787;BME280;45672;51.612;5.536;2023-02-21T13:44:48;101670.19;;;8.86;100.00
59787;BME280;45672;51.612;5.536;2023-02-21T14:08:13;101665.28;;;8.59;100.00
59787;BME280;45672;51.612;5.536;2023-02-21T14:10:48;101666.25;;;8.58;100.00
59787;BME280;45672;51.612;5.536;2023-02-21T14:13:41;101662.13;;;8.54;100.00
59787;BME280;45672;51.612;5.536;2023-02-21T14:18:58;101654.69;;;8.59;100.00
59787;BME280;45672;51.612;5.536;2023-02-21T14:21:42;101661.75;;;8.58;100.00
59787;BME280;45672;51.612;5.536;2023-02-21T14:29:36;101663.00;;;8.54;100.00
59787;BME280;45672;51.612;5.536;2023-02-21T14:37:37;101653.22;;;8.55;100.00
59787;BME280;45672;51.612;5.536;2023-02-21T14:45:25;101642.25;;;8.48;100.00
59787;BME280;45672;51.612;5.536;2023-02-21T14:54:00;101641.03;;;8.52;100.00
59787;BME280;45672;51.612;5.536;2023-02-21T15:02:28;101635.75;;;8.52;100.00
59787;BME280;45672;51.612;5.536;2023-02-21T15:05:25;101636.34;;;8.56;100.00
59787;BME280;45672;51.612;5.536;2023-02-21T15:13:01;101632.38;;;8.61;100.00
59787;BME280;45672;51.612;5.536;2023-02-21T15:15:31;101633.91;;;8.64;100.00
59787;BME280;45672;51.612;5.536;2023-02-21T15:18:25;101630.91;;;8.69;100.00
59787;BME280;45672;51.612;5.536;2023-02-21T15:21:17;101624.53;;;8.71;100.00
59787;BME280;45672;51.612;5.536;2023-02-21T15:23:44;101622.94;;;8.69;100.00
59787;BME280;45672;51.612;5.536;2023-02-21T15:26:25;101631.50;;;8.72;100.00
59787;BME280;45672;51.612;5.536;2023-02-21T15:34:04;101619.56;;;8.55;100.00